sensor_id;sensor_type;location;lat;lon;timestamp;P1;durP1;ratioP1;P2;durP2;ratioP2
6135;SDS011;24008;42.664;23.372;2022-12-26T00:02:09;28.83;;;17.43;;
6135;SDS011;24008;42.664;23.372;2022-12-26T00:04:36;31.20;;;17.50;;
6135;SDS011;24008;42.664;23.372;2022-12-26T00:07:03;32.33;;;17.03;;
6135;SDS011;24008;42.664;23.372;2022-12-26T00:09:32;31.13;;;16.70;;
6135;SDS011;24008;42.664;23.372;2022-12-26T00:11:59;29.20;;;17.30;;
6135;SDS011;24008;42.664;23.372;2022-12-26T00:14:26;30.23;;;17.43;;
6135;SDS011;24008;42.664;23.372;2022-12-26T00:16:53;31.00;;;18.23;;
6135;SDS011;24008;42.664;23.372;2022-12-26T00:19:19;28.77;;;17.60;;
6135;SDS011;24008;42.664;23.372;2022-12-26T00:21:46;31.53;;;17.37;;
6135;SDS011;24008;42.664;23.372;2022-12-26T00:24:13;27.30;;;17.53;;
6135;SDS011;24008;42.664;23.372;2022-12-26T00:26:41;31.07;;;17.80;;
6135;SDS011;24008;42.664;23.372;2022-12-26T00:29:08;29.80;;;17.00;;
6135;SDS011;24008;42.664;23.372;2022-12-26T00:31:34;27.43;;;17.03;;
6135;SDS011;24008;42.664;23.372;2022-12-26T00:34:01;27.30;;;17.17;;
6135;SDS011;24008;42.664;23.372;2022-12-26T00:36:29;30.13;;;18.03;;
6135;SDS011;24008;42.664;23.372;2022-12-26T00:38:58;32.17;;;18.27;;
6135;SDS011;24008;42.664;23.372;2022-12-26T00:41:26;29.87;;;18.00;;
6135;SDS011;24008;42.664;23.372;2022-12-26T00:43:55;30.40;;;18.37;;
6135;SDS011;24008;42.664;23.372;2022-12-26T00:46:23;29.40;;;17.00;;
6135;SDS011;24008;42.664;23.372;2022-12-26T00:48:50;29.67;;;17.77;;
6135;SDS011;24008;42.664;23.372;2022-12-26T00:51:17;28.53;;;16.97;;
6135;SDS011;24008;42.664;23.372;2022-12-26T00:53:44;29.47;;;17.40;;
6135;SDS011;24008;42.664;23.372;2022-12-26T00:56:11;32.87;;;19.33;;
6135;SDS011;24008;42.664;23.372;2022-12-26T00:58:39;31.07;;;18.10;;
6135;SDS011;24008;42.664;23.372;2022-12-26T01:01:09;26.87;;;17.27;;
6135;SDS011;24008;42.664;23.372;2022-12-26T01:03:39;27.17;;;16.10;;
6135;SDS011;24008;42.664;23.372;2022-12-26T01:06:07;28.50;;;17.57;;
6135;SDS011;24008;42.664;23.372;2022-12-26T01:08:33;24.13;;;15.63;;
6135;SDS011;24008;42.664;23.372;2022-12-26T01:11:04;24.23;;;15.73;;
6135;SDS011;24008;42.664;23.372;2022-12-26T01:13:33;30.63;;;17.27;;
6135;SDS011;24008;42.664;23.372;2022-12-26T01:16:00;31.67;;;16.43;;
6135;SDS011;24008;42.664;23.372;2022-12-26T01:18:29;29.43;;;17.50;;
6135;SDS011;24008;42.664;23.372;2022-12-26T01:20:59;32.57;;;19.63;;
6135;SDS011;24008;42.664;23.372;2022-12-26T01:23:27;32.13;;;17.80;;
6135;SDS011;24008;42.664;23.372;2022-12-26T01:25:54;28.03;;;17.00;;
6135;SDS011;24008;42.664;23.372;2022-12-26T01:28:21;27.50;;;16.13;;
6135;SDS011;24008;42.664;23.372;2022-12-26T01:30:48;24.97;;;15.13;;
6135;SDS011;24008;42.664;23.372;2022-12-26T01:33:15;26.53;;;16.90;;
6135;SDS011;24008;42.664;23.372;2022-12-26T01:35:50;28.80;;;16.87;;
6135;SDS011;24008;42.664;23.372;2022-12-26T01:38:18;31.27;;;16.77;;
6135;SDS011;24008;42.664;23.372;2022-12-26T01:40:46;24.63;;;15.73;;
6135;SDS011;24008;42.664;23.372;2022-12-26T01:43:46;27.20;;;17.27;;
6135;SDS011;24008;42.664;23.372;2022-12-26T01:46:14;26.83;;;16.70;;
6135;SDS011;24008;42.664;23.372;2022-12-26T01:48:43;30.00;;;18.40;;
6135;SDS011;24008;42.664;23.372;2022-12-26T01:51:12;33.10;;;19.47;;
6135;SDS011;24008;42.664;23.372;2022-12-26T01:53:42;28.93;;;18.00;;
6135;SDS011;24008;42.664;23.372;2022-12-26T01:56:14;26.30;;;17.27;;
6135;SDS011;24008;42.664;23.372;2022-12-26T01:58:45;31.83;;;18.20;;
6135;SDS011;24008;42.664;23.372;2022-12-26T02:01:16;27.53;;;17.80;;
6135;SDS011;24008;42.664;23.372;2022-12-26T02:03:44;28.90;;;17.80;;
6135;SDS011;24008;42.664;23.372;2022-12-26T02:06:32;28.33;;;17.43;;
6135;SDS011;24008;42.664;23.372;2022-12-26T02:09:00;42.13;;;23.33;;
6135;SDS011;24008;42.664;23.372;2022-12-26T02:11:27;31.20;;;16.90;;
6135;SDS011;24008;42.664;23.372;2022-12-26T02:14:00;25.17;;;15.73;;
6135;SDS011;24008;42.664;23.372;2022-12-26T02:16:30;25.77;;;15.60;;
6135;SDS011;24008;42.664;23.372;2022-12-26T02:18:59;29.57;;;16.73;;
6135;SDS011;24008;42.664;23.372;2022-12-26T02:21:37;24.13;;;15.50;;
6135;SDS011;24008;42.664;23.372;2022-12-26T02:24:32;25.50;;;14.97;;
6135;SDS011;24008;42.664;23.372;2022-12-26T02:27:21;30.00;;;16.47;;
6135;SDS011;24008;42.664;23.372;2022-12-26T02:30:21;23.87;;;14.77;;
6135;SDS011;24008;42.664;23.372;2022-12-26T02:33:17;24.60;;;14.53;;
6135;SDS011;24008;42.664;23.372;2022-12-26T02:35:58;23.07;;;14.63;;
6135;SDS011;24008;42.664;23.372;2022-12-26T02:38:39;26.07;;;15.37;;
6135;SDS011;24008;42.664;23.372;2022-12-26T02:41:16;23.60;;;14.47;;
6135;SDS011;24008;42.664;23.372;2022-12-26T02:43:53;26.10;;;15.67;;
6135;SDS011;24008;42.664;23.372;2022-12-26T02:46:51;26.20;;;14.20;;
6135;SDS011;24008;42.664;23.372;2022-12-26T02:49:33;31.10;;;18.50;;
6135;SDS011;24008;42.664;23.372;2022-12-26T02:52:32;24.27;;;14.37;;
6135;SDS011;24008;42.664;23.372;2022-12-26T02:55:24;22.23;;;14.23;;
6135;SDS011;24008;42.664;23.372;2022-12-26T02:58:13;27.37;;;15.10;;
6135;SDS011;24008;42.664;23.372;2022-12-26T03:01:03;26.90;;;15.20;;
6135;SDS011;24008;42.664;23.372;2022-12-26T03:03:53;27.57;;;15.87;;
6135;SDS011;24008;42.664;23.372;2022-12-26T03:06:39;27.83;;;15.67;;
6135;SDS011;24008;42.664;23.372;2022-12-26T03:09:28;28.07;;;16.63;;
6135;SDS011;24008;42.664;23.372;2022-12-26T03:12:22;27.33;;;15.13;;
6135;SDS011;24008;42.664;23.372;2022-12-26T03:15:16;27.53;;;15.77;;
6135;SDS011;24008;42.664;23.372;2022-12-26T03:17:48;29.10;;;17.10;;
6135;SDS011;24008;42.664;23.372;2022-12-26T03:20:19;29.83;;;17.83;;
6135;SDS011;24008;42.664;23.372;2022-12-26T03:22:50;30.57;;;17.93;;
6135;SDS011;24008;42.664;23.372;2022-12-26T03:25:22;33.20;;;19.53;;
6135;SDS011;24008;42.664;23.372;2022-12-26T03:28:09;40.37;;;21.00;;
6135;SDS011;24008;42.664;23.372;2022-12-26T03:30:36;36.37;;;21.17;;
6135;SDS011;24008;42.664;23.372;2022-12-26T03:33:14;35.40;;;20.57;;
6135;SDS011;24008;42.664;23.372;2022-12-26T03:36:00;36.93;;;20.93;;
6135;SDS011;24008;42.664;23.372;2022-12-26T03:38:30;52.43;;;28.60;;
6135;SDS011;24008;42.664;23.372;2022-12-26T03:41:04;43.17;;;24.50;;
6135;SDS011;24008;42.664;23.372;2022-12-26T03:44:01;43.20;;;24.07;;
6135;SDS011;24008;42.664;23.372;2022-12-26T03:47:05;28.20;;;15.97;;
6135;SDS011;24008;42.664;23.372;2022-12-26T03:49:59;30.87;;;18.80;;
6135;SDS011;24008;42.664;23.372;2022-12-26T03:52:50;33.23;;;19.30;;
6135;SDS011;24008;42.664;23.372;2022-12-26T03:55:47;34.27;;;19.07;;
6135;SDS011;24008;42.664;23.372;2022-12-26T03:58:55;31.47;;;17.83;;
6135;SDS011;24008;42.664;23.372;2022-12-26T04:01:43;32.53;;;17.77;;
6135;SDS011;24008;42.664;23.372;2022-12-26T04:04:31;30.97;;;18.83;;
6135;SDS011;24008;42.664;23.372;2022-12-26T04:07:18;32.20;;;18.27;;
6135;SDS011;24008;42.664;23.372;2022-12-26T04:10:10;29.23;;;17.33;;
6135;SDS011;24008;42.664;23.372;2022-12-26T04:12:59;30.40;;;18.03;;
6135;SDS011;24008;42.664;23.372;2022-12-26T04:15:50;34.23;;;21.23;;
6135;SDS011;24008;42.664;23.372;2022-12-26T04:18:39;66.17;;;41.67;;
6135;SDS011;24008;42.664;23.372;2022-12-26T04:21:29;84.17;;;45.63;;
6135;SDS011;24008;42.664;23.372;2022-12-26T04:24:22;89.87;;;49.03;;
6135;SDS011;24008;42.664;23.372;2022-12-26T04:27:11;75.37;;;43.87;;
6135;SDS011;24008;42.664;23.372;2022-12-26T04:29:57;106.57;;;55.50;;
6135;SDS011;24008;42.664;23.372;2022-12-26T04:32:42;71.90;;;40.03;;
6135;SDS011;24008;42.664;23.372;2022-12-26T04:35:29;62.07;;;36.33;;
6135;SDS011;24008;42.664;23.372;2022-12-26T04:38:18;88.20;;;50.30;;
6135;SDS011;24008;42.664;23.372;2022-12-26T04:41:06;86.63;;;49.80;;
6135;SDS011;24008;42.664;23.372;2022-12-26T04:43:55;91.77;;;51.57;;
6135;SDS011;24008;42.664;23.372;2022-12-26T04:46:34;91.60;;;52.67;;
6135;SDS011;24008;42.664;23.372;2022-12-26T04:49:03;91.70;;;52.67;;
6135;SDS011;24008;42.664;23.372;2022-12-26T04:51:49;82.73;;;47.17;;
6135;SDS011;24008;42.664;23.372;2022-12-26T04:54:16;93.43;;;52.90;;
6135;SDS011;24008;42.664;23.372;2022-12-26T04:56:43;87.77;;;47.97;;
6135;SDS011;24008;42.664;23.372;2022-12-26T04:59:12;74.27;;;45.60;;
6135;SDS011;24008;42.664;23.372;2022-12-26T05:01:39;58.13;;;36.53;;
6135;SDS011;24008;42.664;23.372;2022-12-26T05:04:23;56.03;;;35.50;;
6135;SDS011;24008;42.664;23.372;2022-12-26T05:07:10;64.20;;;36.97;;
6135;SDS011;24008;42.664;23.372;2022-12-26T05:09:59;60.90;;;35.27;;
6135;SDS011;24008;42.664;23.372;2022-12-26T05:12:26;49.83;;;29.33;;
6135;SDS011;24008;42.664;23.372;2022-12-26T05:14:54;43.50;;;26.67;;
6135;SDS011;24008;42.664;23.372;2022-12-26T05:17:21;44.73;;;28.23;;
6135;SDS011;24008;42.664;23.372;2022-12-26T05:20:05;34.97;;;20.43;;
6135;SDS011;24008;42.664;23.372;2022-12-26T05:22:50;30.07;;;17.97;;
6135;SDS011;24008;42.664;23.372;2022-12-26T05:25:36;37.30;;;20.13;;
6135;SDS011;24008;42.664;23.372;2022-12-26T05:28:23;32.47;;;20.07;;
6135;SDS011;24008;42.664;23.372;2022-12-26T05:31:10;32.33;;;19.03;;
6135;SDS011;24008;42.664;23.372;2022-12-26T05:33:38;36.47;;;20.77;;
6135;SDS011;24008;42.664;23.372;2022-12-26T05:36:24;37.87;;;21.83;;
6135;SDS011;24008;42.664;23.372;2022-12-26T05:38:54;29.67;;;18.60;;
6135;SDS011;24008;42.664;23.372;2022-12-26T05:41:21;40.47;;;22.77;;
6135;SDS011;24008;42.664;23.372;2022-12-26T05:43:49;33.70;;;21.73;;
6135;SDS011;24008;42.664;23.372;2022-12-26T05:46:17;33.97;;;19.83;;
6135;SDS011;24008;42.664;23.372;2022-12-26T05:48:44;38.57;;;22.90;;
6135;SDS011;24008;42.664;23.372;2022-12-26T05:51:11;34.63;;;21.37;;
6135;SDS011;24008;42.664;23.372;2022-12-26T05:53:38;39.57;;;22.43;;
6135;SDS011;24008;42.664;23.372;2022-12-26T05:56:05;37.40;;;21.73;;
6135;SDS011;24008;42.664;23.372;2022-12-26T05:58:35;40.00;;;23.93;;
6135;SDS011;24008;42.664;23.372;2022-12-26T06:01:05;39.63;;;21.57;;
6135;SDS011;24008;42.664;23.372;2022-12-26T06:03:36;39.13;;;23.57;;
6135;SDS011;24008;42.664;23.372;2022-12-26T06:06:04;37.63;;;23.20;;
6135;SDS011;24008;42.664;23.372;2022-12-26T06:08:31;40.47;;;23.70;;
6135;SDS011;24008;42.664;23.372;2022-12-26T06:11:01;45.23;;;24.57;;
6135;SDS011;24008;42.664;23.372;2022-12-26T06:13:28;38.83;;;23.53;;
6135;SDS011;24008;42.664;23.372;2022-12-26T06:15:55;43.03;;;23.67;;
6135;SDS011;24008;42.664;23.372;2022-12-26T06:18:22;45.50;;;26.03;;
6135;SDS011;24008;42.664;23.372;2022-12-26T06:20:51;41.00;;;24.97;;
6135;SDS011;24008;42.664;23.372;2022-12-26T06:23:18;37.73;;;23.93;;
6135;SDS011;24008;42.664;23.372;2022-12-26T06:25:51;46.77;;;27.27;;
6135;SDS011;24008;42.664;23.372;2022-12-26T06:28:19;46.70;;;26.97;;
6135;SDS011;24008;42.664;23.372;2022-12-26T06:30:46;41.30;;;25.50;;
6135;SDS011;24008;42.664;23.372;2022-12-26T06:33:13;41.50;;;24.30;;
6135;SDS011;24008;42.664;23.372;2022-12-26T06:35:41;38.73;;;23.00;;
6135;SDS011;24008;42.664;23.372;2022-12-26T06:38:09;42.07;;;25.43;;
6135;SDS011;24008;42.664;23.372;2022-12-26T06:40:37;37.97;;;24.30;;
6135;SDS011;24008;42.664;23.372;2022-12-26T06:43:05;41.23;;;24.60;;
6135;SDS011;24008;42.664;23.372;2022-12-26T06:45:32;35.37;;;22.13;;
6135;SDS011;24008;42.664;23.372;2022-12-26T06:47:59;38.40;;;23.67;;
6135;SDS011;24008;42.664;23.372;2022-12-26T06:50:26;36.30;;;21.93;;
6135;SDS011;24008;42.664;23.372;2022-12-26T06:52:53;36.77;;;23.13;;
6135;SDS011;24008;42.664;23.372;2022-12-26T06:55:21;35.23;;;21.07;;
6135;SDS011;24008;42.664;23.372;2022-12-26T06:57:50;44.87;;;26.13;;
6135;SDS011;24008;42.664;23.372;2022-12-26T07:00:17;41.37;;;24.13;;
6135;SDS011;24008;42.664;23.372;2022-12-26T07:02:47;39.00;;;23.00;;
6135;SDS011;24008;42.664;23.372;2022-12-26T07:05:15;41.43;;;24.83;;
6135;SDS011;24008;42.664;23.372;2022-12-26T07:07:42;41.23;;;24.97;;
6135;SDS011;24008;42.664;23.372;2022-12-26T07:10:09;45.53;;;26.70;;
6135;SDS011;24008;42.664;23.372;2022-12-26T07:12:37;41.27;;;24.80;;
6135;SDS011;24008;42.664;23.372;2022-12-26T07:15:05;39.53;;;23.90;;
6135;SDS011;24008;42.664;23.372;2022-12-26T07:17:34;40.53;;;26.07;;
6135;SDS011;24008;42.664;23.372;2022-12-26T07:20:02;51.30;;;28.73;;
6135;SDS011;24008;42.664;23.372;2022-12-26T07:22:29;46.37;;;27.73;;
6135;SDS011;24008;42.664;23.372;2022-12-26T07:24:56;47.37;;;29.10;;
6135;SDS011;24008;42.664;23.372;2022-12-26T07:27:23;42.07;;;27.10;;
6135;SDS011;24008;42.664;23.372;2022-12-26T07:29:52;45.97;;;28.17;;
6135;SDS011;24008;42.664;23.372;2022-12-26T07:32:19;44.80;;;27.60;;
6135;SDS011;24008;42.664;23.372;2022-12-26T07:34:45;45.63;;;29.10;;
6135;SDS011;24008;42.664;23.372;2022-12-26T07:37:12;40.70;;;26.53;;
6135;SDS011;24008;42.664;23.372;2022-12-26T07:39:39;33.30;;;22.20;;
6135;SDS011;24008;42.664;23.372;2022-12-26T07:42:06;36.47;;;22.63;;
6135;SDS011;24008;42.664;23.372;2022-12-26T07:44:33;29.50;;;18.13;;
6135;SDS011;24008;42.664;23.372;2022-12-26T07:47:01;29.87;;;19.43;;
6135;SDS011;24008;42.664;23.372;2022-12-26T07:49:28;33.37;;;21.67;;
6135;SDS011;24008;42.664;23.372;2022-12-26T07:51:56;33.53;;;21.23;;
6135;SDS011;24008;42.664;23.372;2022-12-26T07:54:23;31.00;;;18.77;;
6135;SDS011;24008;42.664;23.372;2022-12-26T07:56:52;29.50;;;18.70;;
6135;SDS011;24008;42.664;23.372;2022-12-26T07:59:19;24.77;;;16.70;;
6135;SDS011;24008;42.664;23.372;2022-12-26T08:01:46;28.30;;;17.63;;
6135;SDS011;24008;42.664;23.372;2022-12-26T08:04:14;31.43;;;21.20;;
6135;SDS011;24008;42.664;23.372;2022-12-26T08:06:41;38.00;;;22.70;;
6135;SDS011;24008;42.664;23.372;2022-12-26T08:09:11;34.43;;;22.27;;
6135;SDS011;24008;42.664;23.372;2022-12-26T08:11:40;37.57;;;23.07;;
6135;SDS011;24008;42.664;23.372;2022-12-26T08:14:09;37.00;;;24.60;;
6135;SDS011;24008;42.664;23.372;2022-12-26T08:16:42;36.23;;;24.63;;
6135;SDS011;24008;42.664;23.372;2022-12-26T08:19:14;35.70;;;23.90;;
6135;SDS011;24008;42.664;23.372;2022-12-26T08:21:41;38.03;;;25.13;;
6135;SDS011;24008;42.664;23.372;2022-12-26T08:24:07;38.33;;;25.80;;
6135;SDS011;24008;42.664;23.372;2022-12-26T08:26:34;34.57;;;25.30;;
6135;SDS011;24008;42.664;23.372;2022-12-26T08:29:01;36.43;;;23.07;;
6135;SDS011;24008;42.664;23.372;2022-12-26T08:31:28;39.03;;;23.43;;
6135;SDS011;24008;42.664;23.372;2022-12-26T08:33:55;35.13;;;23.63;;
6135;SDS011;24008;42.664;23.372;2022-12-26T08:36:24;32.80;;;22.57;;
6135;SDS011;24008;42.664;23.372;2022-12-26T08:38:51;33.83;;;22.90;;
6135;SDS011;24008;42.664;23.372;2022-12-26T08:41:18;32.10;;;22.43;;
6135;SDS011;24008;42.664;23.372;2022-12-26T08:43:48;34.37;;;23.63;;
6135;SDS011;24008;42.664;23.372;2022-12-26T08:46:16;33.07;;;23.03;;
6135;SDS011;24008;42.664;23.372;2022-12-26T08:48:44;32.83;;;23.03;;
6135;SDS011;24008;42.664;23.372;2022-12-26T08:51:12;33.30;;;22.80;;
6135;SDS011;24008;42.664;23.372;2022-12-26T08:53:42;32.57;;;22.80;;
6135;SDS011;24008;42.664;23.372;2022-12-26T08:56:11;35.67;;;24.67;;
6135;SDS011;24008;42.664;23.372;2022-12-26T08:58:40;34.70;;;25.20;;
6135;SDS011;24008;42.664;23.372;2022-12-26T09:01:08;37.63;;;24.93;;
6135;SDS011;24008;42.664;23.372;2022-12-26T09:03:36;33.20;;;24.50;;
6135;SDS011;24008;42.664;23.372;2022-12-26T09:06:04;35.73;;;23.30;;
6135;SDS011;24008;42.664;23.372;2022-12-26T09:08:32;36.03;;;23.30;;
6135;SDS011;24008;42.664;23.372;2022-12-26T09:11:05;33.30;;;22.90;;
6135;SDS011;24008;42.664;23.372;2022-12-26T09:13:33;32.67;;;21.33;;
6135;SDS011;24008;42.664;23.372;2022-12-26T09:16:07;29.73;;;21.27;;
6135;SDS011;24008;42.664;23.372;2022-12-26T09:18:35;28.00;;;19.90;;
6135;SDS011;24008;42.664;23.372;2022-12-26T09:21:03;27.93;;;19.60;;
6135;SDS011;24008;42.664;23.372;2022-12-26T09:23:31;34.03;;;21.40;;
6135;SDS011;24008;42.664;23.372;2022-12-26T09:26:03;31.00;;;21.30;;
6135;SDS011;24008;42.664;23.372;2022-12-26T09:28:33;34.00;;;23.10;;
6135;SDS011;24008;42.664;23.372;2022-12-26T09:31:00;38.07;;;25.00;;
6135;SDS011;24008;42.664;23.372;2022-12-26T09:33:27;39.97;;;26.03;;
6135;SDS011;24008;42.664;23.372;2022-12-26T09:35:57;37.83;;;26.50;;
6135;SDS011;24008;42.664;23.372;2022-12-26T09:38:24;41.57;;;25.63;;
6135;SDS011;24008;42.664;23.372;2022-12-26T09:40:55;35.70;;;25.30;;
6135;SDS011;24008;42.664;23.372;2022-12-26T09:43:37;37.37;;;25.83;;
6135;SDS011;24008;42.664;23.372;2022-12-26T09:46:17;40.20;;;26.20;;
6135;SDS011;24008;42.664;23.372;2022-12-26T09:48:56;36.57;;;25.80;;
6135;SDS011;24008;42.664;23.372;2022-12-26T09:51:27;36.07;;;24.97;;
6135;SDS011;24008;42.664;23.372;2022-12-26T09:53:56;38.47;;;23.63;;
6135;SDS011;24008;42.664;23.372;2022-12-26T09:56:25;36.47;;;23.97;;
6135;SDS011;24008;42.664;23.372;2022-12-26T09:58:55;40.27;;;24.97;;
6135;SDS011;24008;42.664;23.372;2022-12-26T10:01:27;35.40;;;24.67;;
6135;SDS011;24008;42.664;23.372;2022-12-26T10:03:58;38.13;;;24.00;;
6135;SDS011;24008;42.664;23.372;2022-12-26T10:06:26;37.50;;;23.73;;
6135;SDS011;24008;42.664;23.372;2022-12-26T10:09:12;34.30;;;23.57;;
6135;SDS011;24008;42.664;23.372;2022-12-26T10:11:56;35.07;;;22.67;;
6135;SDS011;24008;42.664;23.372;2022-12-26T10:14:39;34.97;;;22.60;;
6135;SDS011;24008;42.664;23.372;2022-12-26T10:17:17;34.40;;;23.17;;
6135;SDS011;24008;42.664;23.372;2022-12-26T10:19:52;32.67;;;22.70;;
6135;SDS011;24008;42.664;23.372;2022-12-26T10:22:34;35.13;;;22.70;;
6135;SDS011;24008;42.664;23.372;2022-12-26T10:25:17;34.47;;;23.63;;
6135;SDS011;24008;42.664;23.372;2022-12-26T10:27:47;40.70;;;23.53;;
6135;SDS011;24008;42.664;23.372;2022-12-26T10:30:19;31.17;;;22.03;;
6135;SDS011;24008;42.664;23.372;2022-12-26T10:32:49;32.47;;;22.17;;
6135;SDS011;24008;42.664;23.372;2022-12-26T10:35:21;31.83;;;21.33;;
6135;SDS011;24008;42.664;23.372;2022-12-26T10:37:53;32.43;;;20.00;;
6135;SDS011;24008;42.664;23.372;2022-12-26T10:40:26;27.20;;;16.00;;
6135;SDS011;24008;42.664;23.372;2022-12-26T10:42:59;23.30;;;16.43;;
6135;SDS011;24008;42.664;23.372;2022-12-26T10:45:40;26.13;;;17.30;;
6135;SDS011;24008;42.664;23.372;2022-12-26T10:48:15;21.70;;;14.80;;
6135;SDS011;24008;42.664;23.372;2022-12-26T10:50:43;27.30;;;15.57;;
6135;SDS011;24008;42.664;23.372;2022-12-26T10:53:13;17.43;;;12.17;;
6135;SDS011;24008;42.664;23.372;2022-12-26T10:55:42;19.80;;;12.13;;
6135;SDS011;24008;42.664;23.372;2022-12-26T10:58:13;22.43;;;14.90;;
6135;SDS011;24008;42.664;23.372;2022-12-26T11:00:44;23.97;;;15.10;;
6135;SDS011;24008;42.664;23.372;2022-12-26T11:03:12;21.70;;;14.77;;
6135;SDS011;24008;42.664;23.372;2022-12-26T11:05:41;28.20;;;15.57;;
6135;SDS011;24008;42.664;23.372;2022-12-26T11:08:15;21.67;;;13.40;;
6135;SDS011;24008;42.664;23.372;2022-12-26T11:10:59;24.33;;;14.73;;
6135;SDS011;24008;42.664;23.372;2022-12-26T11:13:28;19.53;;;13.53;;
6135;SDS011;24008;42.664;23.372;2022-12-26T11:16:01;18.63;;;13.70;;
6135;SDS011;24008;42.664;23.372;2022-12-26T11:18:30;21.00;;;13.27;;
6135;SDS011;24008;42.664;23.372;2022-12-26T11:21:10;23.93;;;13.37;;
6135;SDS011;24008;42.664;23.372;2022-12-26T11:23:39;22.13;;;13.27;;
6135;SDS011;24008;42.664;23.372;2022-12-26T11:26:19;19.67;;;12.60;;
6135;SDS011;24008;42.664;23.372;2022-12-26T11:28:47;20.67;;;13.13;;
6135;SDS011;24008;42.664;23.372;2022-12-26T11:31:32;19.50;;;12.90;;
6135;SDS011;24008;42.664;23.372;2022-12-26T11:33:59;18.33;;;9.73;;
6135;SDS011;24008;42.664;23.372;2022-12-26T11:36:27;12.70;;;8.47;;
6135;SDS011;24008;42.664;23.372;2022-12-26T11:38:57;15.17;;;10.03;;
6135;SDS011;24008;42.664;23.372;2022-12-26T11:41:34;15.30;;;10.20;;
6135;SDS011;24008;42.664;23.372;2022-12-26T11:44:14;16.83;;;11.23;;
6135;SDS011;24008;42.664;23.372;2022-12-26T11:46:46;17.77;;;11.07;;
6135;SDS011;24008;42.664;23.372;2022-12-26T11:49:16;17.07;;;10.80;;
6135;SDS011;24008;42.664;23.372;2022-12-26T11:51:47;17.93;;;11.43;;
6135;SDS011;24008;42.664;23.372;2022-12-26T11:54:19;18.00;;;11.63;;
6135;SDS011;24008;42.664;23.372;2022-12-26T11:56:59;16.87;;;11.10;;
6135;SDS011;24008;42.664;23.372;2022-12-26T11:59:36;19.23;;;11.87;;
6135;SDS011;24008;42.664;23.372;2022-12-26T12:04:53;24.53;;;14.93;;
6135;SDS011;24008;42.664;23.372;2022-12-26T12:07:27;23.13;;;15.27;;
6135;SDS011;24008;42.664;23.372;2022-12-26T12:10:20;22.50;;;14.60;;
6135;SDS011;24008;42.664;23.372;2022-12-26T12:13:10;29.20;;;16.20;;
6135;SDS011;24008;42.664;23.372;2022-12-26T12:15:51;22.93;;;14.27;;
6135;SDS011;24008;42.664;23.372;2022-12-26T12:18:30;21.83;;;13.63;;
6135;SDS011;24008;42.664;23.372;2022-12-26T12:21:07;21.53;;;14.23;;
6135;SDS011;24008;42.664;23.372;2022-12-26T12:23:46;24.03;;;15.10;;
6135;SDS011;24008;42.664;23.372;2022-12-26T12:26:25;21.30;;;14.00;;
6135;SDS011;24008;42.664;23.372;2022-12-26T12:29:06;18.20;;;11.43;;
6135;SDS011;24008;42.664;23.372;2022-12-26T12:31:44;15.53;;;9.73;;
6135;SDS011;24008;42.664;23.372;2022-12-26T12:34:24;16.17;;;9.40;;
6135;SDS011;24008;42.664;23.372;2022-12-26T12:37:03;20.50;;;11.30;;
6135;SDS011;24008;42.664;23.372;2022-12-26T12:39:44;20.27;;;12.90;;
6135;SDS011;24008;42.664;23.372;2022-12-26T12:42:22;15.40;;;10.13;;
6135;SDS011;24008;42.664;23.372;2022-12-26T12:45:02;14.87;;;8.67;;
6135;SDS011;24008;42.664;23.372;2022-12-26T12:47:45;13.57;;;9.30;;
6135;SDS011;24008;42.664;23.372;2022-12-26T12:50:22;15.50;;;9.23;;
6135;SDS011;24008;42.664;23.372;2022-12-26T12:52:56;17.27;;;9.30;;
6135;SDS011;24008;42.664;23.372;2022-12-26T12:58:31;14.37;;;9.97;;
6135;SDS011;24008;42.664;23.372;2022-12-26T13:01:09;17.80;;;9.50;;
6135;SDS011;24008;42.664;23.372;2022-12-26T13:03:42;15.33;;;10.07;;
6135;SDS011;24008;42.664;23.372;2022-12-26T13:06:16;17.43;;;9.57;;
6135;SDS011;24008;42.664;23.372;2022-12-26T13:08:48;17.60;;;9.53;;
6135;SDS011;24008;42.664;23.372;2022-12-26T13:11:19;19.53;;;10.87;;
6135;SDS011;24008;42.664;23.372;2022-12-26T13:13:51;20.43;;;10.20;;
6135;SDS011;24008;42.664;23.372;2022-12-26T13:16:22;16.30;;;9.57;;
6135;SDS011;24008;42.664;23.372;2022-12-26T13:18:55;13.13;;;9.10;;
6135;SDS011;24008;42.664;23.372;2022-12-26T13:21:27;11.63;;;7.93;;
6135;SDS011;24008;42.664;23.372;2022-12-26T13:23:59;14.67;;;8.67;;
6135;SDS011;24008;42.664;23.372;2022-12-26T13:26:48;13.20;;;7.33;;
6135;SDS011;24008;42.664;23.372;2022-12-26T13:29:27;14.33;;;7.57;;
6135;SDS011;24008;42.664;23.372;2022-12-26T13:31:59;10.17;;;6.70;;
6135;SDS011;24008;42.664;23.372;2022-12-26T13:34:28;10.93;;;6.77;;
6135;SDS011;24008;42.664;23.372;2022-12-26T13:36:57;11.70;;;7.13;;
6135;SDS011;24008;42.664;23.372;2022-12-26T13:39:29;11.67;;;6.63;;
6135;SDS011;24008;42.664;23.372;2022-12-26T13:42:00;12.23;;;7.40;;
6135;SDS011;24008;42.664;23.372;2022-12-26T13:44:48;11.87;;;7.47;;
6135;SDS011;24008;42.664;23.372;2022-12-26T13:47:31;10.37;;;6.90;;
6135;SDS011;24008;42.664;23.372;2022-12-26T13:53:01;12.90;;;7.83;;
6135;SDS011;24008;42.664;23.372;2022-12-26T13:55:30;12.27;;;7.33;;
6135;SDS011;24008;42.664;23.372;2022-12-26T13:58:12;9.67;;;6.80;;
6135;SDS011;24008;42.664;23.372;2022-12-26T14:01:07;9.53;;;6.80;;
6135;SDS011;24008;42.664;23.372;2022-12-26T14:03:46;10.53;;;6.20;;
6135;SDS011;24008;42.664;23.372;2022-12-26T14:06:32;8.20;;;5.73;;
6135;SDS011;24008;42.664;23.372;2022-12-26T14:09:22;11.70;;;5.93;;
6135;SDS011;24008;42.664;23.372;2022-12-26T14:12:21;13.97;;;6.10;;
6135;SDS011;24008;42.664;23.372;2022-12-26T14:15:05;9.63;;;5.80;;
6135;SDS011;24008;42.664;23.372;2022-12-26T14:17:45;11.00;;;5.97;;
6135;SDS011;24008;42.664;23.372;2022-12-26T14:20:22;11.23;;;6.53;;
6135;SDS011;24008;42.664;23.372;2022-12-26T14:23:02;11.93;;;6.60;;
6135;SDS011;24008;42.664;23.372;2022-12-26T14:25:46;11.20;;;6.60;;
6135;SDS011;24008;42.664;23.372;2022-12-26T14:28:20;14.43;;;7.50;;
6135;SDS011;24008;42.664;23.372;2022-12-26T14:30:53;11.77;;;6.93;;
6135;SDS011;24008;42.664;23.372;2022-12-26T14:33:30;16.87;;;8.17;;
6135;SDS011;24008;42.664;23.372;2022-12-26T14:36:06;13.83;;;8.70;;
6135;SDS011;24008;42.664;23.372;2022-12-26T14:38:45;15.37;;;7.40;;
6135;SDS011;24008;42.664;23.372;2022-12-26T14:41:21;13.33;;;8.00;;
6135;SDS011;24008;42.664;23.372;2022-12-26T14:44:16;11.40;;;7.40;;
6135;SDS011;24008;42.664;23.372;2022-12-26T14:47:08;12.00;;;7.20;;
6135;SDS011;24008;42.664;23.372;2022-12-26T14:49:36;11.50;;;7.50;;
6135;SDS011;24008;42.664;23.372;2022-12-26T14:54:59;13.87;;;7.60;;
6135;SDS011;24008;42.664;23.372;2022-12-26T14:57:47;17.30;;;8.27;;
6135;SDS011;24008;42.664;23.372;2022-12-26T15:00:33;12.53;;;8.23;;
6135;SDS011;24008;42.664;23.372;2022-12-26T15:09:31;27.37;;;12.60;;
6135;SDS011;24008;42.664;23.372;2022-12-26T15:12:19;24.00;;;12.70;;
6135;SDS011;24008;42.664;23.372;2022-12-26T15:15:30;28.83;;;16.40;;
6135;SDS011;24008;42.664;23.372;2022-12-26T15:27:06;26.40;;;15.00;;
6135;SDS011;24008;42.664;23.372;2022-12-26T15:29:57;17.50;;;11.57;;
6135;SDS011;24008;42.664;23.372;2022-12-26T15:32:37;21.27;;;10.50;;
6135;SDS011;24008;42.664;23.372;2022-12-26T15:35:12;17.80;;;10.40;;